Time;durP1;ratioP1;P1;durP2;ratioP2;P2;SDS_P1;SDS_P2;PMS_P1;PMS_P2;Temp;Humidity;BMP_temperature;BMP_pressure;BME280_temperature;BME280_humidity;BME280_pressure;Samples;Min_cycle;Max_cycle;Signal;HPM_P1;HPM_P2
2021/09/17 04:30:49;;;;;;;319.42;136.32;;;10.60;99.90;;;;;;5174050;27;20369;-79
2021/09/17 04:33:16;;;;;;;251.52;113.85;;;10.60;99.90;;;;;;5174093;27;20540;-71
2021/09/17 04:35:42;;;;;;;246.45;116.20;;;11.20;99.90;;;;;;5173920;27;20103;-71
2021/09/17 04:38:08;;;;;;;226.00;108.07;;;11.90;99.90;;;;;;5173209;27;20028;-71
2021/09/17 04:40:34;;;;;;;200.75;101.35;;;12.60;99.90;;;;;;5173727;27;20022;-71
2021/09/17 04:42:59;;;;;;;184.57;92.25;;;13.30;99.90;;;;;;5173116;27;20476;-73
2021/09/17 04:45:25;;;;;;;167.48;84.93;;;13.90;99.90;;;;;;5172990;27;20424;-72
2021/09/17 04:47:51;;;;;;;153.68;79.15;;;14.50;99.90;;;;;;5173386;27;20029;-72
2021/09/17 04:50:17;;;;;;;138.05;70.30;;;15.10;99.90;;;;;;5173638;27;20026;-73
2021/09/17 04:52:43;;;;;;;121.00;64.57;;;15.50;99.60;;;;;;5172801;27;20061;-73
2021/09/17 04:55:09;;;;;;;116.65;61.70;;;16.00;98.70;;;;;;5173370;27;20057;-73
2021/09/17 04:57:36;;;;;;;100.95;54.50;;;16.40;98.10;;;;;;5172948;27;20011;-73
2021/09/17 05:00:04;;;;;;;94.57;51.30;;;16.70;96.90;;;;;;5172707;27;20105;-73
2021/09/17 05:02:30;;;;;;;91.07;47.58;;;17.10;96.00;;;;;;5173659;27;20056;-73
2021/09/17 05:04:55;;;;;;;81.45;46.03;;;17.30;95.10;;;;;;5172597;27;20026;-73
2021/09/17 05:07:21;;;;;;;69.60;39.78;;;17.60;94.20;;;;;;5172844;27;20433;-73
2021/09/17 05:09:47;;;;;;;69.95;39.92;;;17.80;93.30;;;;;;5173096;27;20487;-74
2021/09/17 05:12:12;;;;;;;65.72;36.83;;;18.00;92.50;;;;;;5172666;27;20033;-73
2021/09/17 05:14:38;;;;;;;59.55;34.25;;;18.20;91.70;;;;;;5172540;27;20139;-73
2021/09/17 05:17:04;;;;;;;52.38;30.95;;;18.40;91.00;;;;;;5172702;27;20050;-73
2021/09/17 05:19:29;;;;;;;114.90;80.90;;;18.60;90.20;;;;;;5173242;27;20103;-68
2021/09/17 05:21:55;;;;;;;439.52;295.13;;;18.70;88.40;;;;;;5172822;27;20468;-65
2021/09/17 05:24:22;;;;;;;118.32;74.88;;;18.80;85.80;;;;;;5172182;27;20031;-66
2021/09/17 05:26:49;;;;;;;53.80;30.70;;;18.70;83.80;;;;;;5171682;27;20105;-65
2021/09/17 05:29:14;;;;;;;31.73;18.10;;;18.70;82.40;;;;;;5172426;27;20043;-65
2021/09/17 05:31:40;;;;;;;29.70;15.40;;;18.60;81.30;;;;;;5172454;27;20025;-66
2021/09/17 05:34:06;;;;;;;26.08;13.68;;;18.50;80.60;;;;;;5172260;27;20049;-66
2021/09/17 05:36:32;;;;;;;21.77;12.27;;;18.40;80.20;;;;;;5172375;27;20079;-66
2021/09/17 05:38:57;;;;;;;21.48;12.52;;;18.30;79.80;;;;;;5171878;27;20018;-66
2021/09/17 05:41:23;;;;;;;27.48;13.00;;;18.20;79.50;;;;;;5162890;27;20022;-65
2021/09/17 05:43:50;;;;;;;26.35;12.65;;;18.10;79.50;;;;;;5157228;27;20061;-65
2021/09/17 05:46:15;;;;;;;24.77;11.65;;;18.10;79.50;;;;;;5158013;27;20027;-65
2021/09/17 05:48:41;;;;;;;25.40;13.05;;;17.90;79.40;;;;;;5157984;27;20030;-66
2021/09/17 05:51:07;;;;;;;24.38;13.07;;;17.90;79.40;;;;;;5158328;27;20027;-66
2021/09/17 05:53:33;;;;;;;28.00;12.02;;;17.90;79.70;;;;;;5158251;27;20487;-66
2021/09/17 05:55:58;;;;;;;30.10;12.88;;;17.80;79.70;;;;;;5157979;27;20101;-66
2021/09/17 05:58:30;;;;;;;49.05;15.02;;;17.80;79.60;;;;;;5158090;27;20420;-65
2021/09/17 06:00:56;;;;;;;33.08;12.80;;;17.70;79.50;;;;;;5157972;27;20372;-66
2021/09/17 06:03:21;;;;;;;30.88;13.02;;;17.70;79.50;;;;;;5157716;27;20019;-66
2021/09/17 06:05:47;;;;;;;26.70;12.10;;;17.70;79.40;;;;;;5157785;27;20118;-66
2021/09/17 06:08:13;;;;;;;31.25;11.20;;;17.70;79.40;;;;;;5157711;27;20026;-65
2021/09/17 06:10:38;;;;;;;26.75;10.80;;;17.70;79.60;;;;;;5157646;27;20034;-65
2021/09/17 06:13:04;;;;;;;20.48;8.95;;;17.70;79.60;;;;;;5157685;27;20373;-66
2021/09/17 06:15:30;;;;;;;19.13;8.32;;;17.70;79.50;;;;;;5157607;27;20027;-65
2021/09/17 06:17:55;;;;;;;21.85;8.35;;;17.80;79.50;;;;;;5157430;27;20023;-65
2021/09/17 06:20:21;;;;;;;16.58;7.90;;;17.80;79.20;;;;;;5157722;27;20106;-66
2021/09/17 06:22:47;;;;;;;19.70;9.00;;;17.80;79.00;;;;;;5157601;27;20029;-66
2021/09/17 06:25:16;;;;;;;20.70;8.70;;;17.80;78.70;;;;;;5157263;27;20361;-65
2021/09/17 06:27:43;;;;;;;20.08;9.15;;;17.90;78.40;;;;;;5157424;27;20022;-66
2021/09/17 06:30:09;;;;;;;27.15;10.50;;;17.90;78.40;;;;;;5156950;27;20043;-65
2021/09/17 06:32:35;;;;;;;21.45;10.18;;;17.90;78.50;;;;;;5157217;27;20030;-65
2021/09/17 06:35:00;;;;;;;24.45;10.20;;;18.00;78.60;;;;;;5157249;27;20353;-65
2021/09/17 06:37:26;;;;;;;21.48;10.02;;;18.00;78.60;;;;;;5157245;27;20047;-65
2021/09/17 06:39:51;;;;;;;18.60;9.65;;;18.10;78.50;;;;;;5157044;27;20029;-65
2021/09/17 06:42:17;;;;;;;22.95;9.75;;;18.10;78.90;;;;;;5157141;27;20376;-65
2021/09/17 06:44:43;;;;;;;22.48;10.60;;;18.20;79.00;;;;;;5156995;27;20031;-66
2021/09/17 06:47:08;;;;;;;24.92;9.70;;;18.20;78.90;;;;;;5156816;27;20042;-65
2021/09/17 06:49:34;;;;;;;27.52;11.73;;;18.20;79.10;;;;;;5156910;27;20015;-65
2021/09/17 06:52:00;;;;;;;20.67;9.85;;;18.30;78.40;;;;;;5156172;27;20541;-65
2021/09/17 06:54:25;;;;;;;15.45;8.65;;;18.30;77.80;;;;;;5156494;27;20023;-65
2021/09/17 06:56:51;;;;;;;19.00;9.18;;;18.40;77.70;;;;;;5156830;27;20023;-65
2021/09/17 06:59:17;;;;;;;18.52;9.50;;;18.50;77.80;;;;;;5156709;27;20367;-66
2021/09/17 07:01:42;;;;;;;16.02;8.70;;;18.50;77.70;;;;;;5156629;27;20027;-66
2021/09/17 07:04:08;;;;;;;21.23;9.02;;;18.60;77.30;;;;;;5156789;27;20019;-65
2021/09/17 07:06:35;;;;;;;22.17;8.82;;;18.60;77.00;;;;;;5156519;27;20426;-65
2021/09/17 07:09:01;;;;;;;19.30;7.95;;;18.70;76.60;;;;;;5156586;27;20015;-66
2021/09/17 07:11:27;;;;;;;15.93;7.93;;;18.70;76.20;;;;;;5156591;27;20015;-65
2021/09/17 07:13:53;;;;;;;19.90;7.85;;;18.80;76.00;;;;;;5156368;27;20030;-65
2021/09/17 07:16:19;;;;;;;13.68;7.00;;;18.80;75.60;;;;;;5156286;27;20026;-65
2021/09/17 07:18:44;;;;;;;15.98;7.05;;;18.90;75.10;;;;;;5156597;27;20022;-65
2021/09/17 07:21:10;;;;;;;11.60;6.18;;;19.00;74.90;;;;;;5156691;27;20483;-65
2021/09/17 07:23:36;;;;;;;16.60;6.95;;;19.00;74.50;;;;;;5156355;27;20022;-65
2021/09/17 07:26:02;;;;;;;15.02;6.82;;;19.10;74.30;;;;;;5156076;27;20409;-65
2021/09/17 07:28:32;;;;;;;13.93;6.70;;;19.10;74.10;;;;;;5155616;27;20019;-65
2021/09/17 07:30:58;;;;;;;16.85;7.00;;;19.20;74.10;;;;;;5156111;27;20027;-65
2021/09/17 07:33:24;;;;;;;13.43;6.88;;;19.30;74.00;;;;;;5156001;27;20476;-65
2021/09/17 07:35:49;;;;;;;10.65;6.22;;;19.30;73.80;;;;;;5156165;27;20030;-65
2021/09/17 07:38:15;;;;;;;14.70;6.40;;;19.40;73.70;;;;;;5156008;27;20025;-65
2021/09/17 07:40:41;;;;;;;14.45;6.60;;;19.50;73.40;;;;;;5156154;27;20025;-65
2021/09/17 07:43:07;;;;;;;17.20;6.22;;;19.50;73.00;;;;;;5155862;27;20026;-65
2021/09/17 07:45:32;;;;;;;16.85;5.97;;;19.60;72.70;;;;;;5155801;27;20540;-65
2021/09/17 07:48:00;;;;;;;14.98;5.43;;;19.60;72.60;;;;;;5137277;27;20503;-65
2021/09/17 07:50:26;;;;;;;9.65;5.22;;;19.60;72.30;;;;;;5155728;27;20057;-65
2021/09/17 07:52:52;;;;;;;11.35;5.50;;;19.70;72.10;;;;;;5155790;27;20466;-65
2021/09/17 07:55:18;;;;;;;14.75;5.78;;;19.80;72.00;;;;;;5155731;27;20055;-65
2021/09/17 07:57:44;;;;;;;11.77;5.30;;;19.80;71.90;;;;;;5155502;27;20015;-65
2021/09/17 08:00:12;;;;;;;11.00;5.15;;;19.80;71.80;;;;;;5155565;27;20031;-65
2021/09/17 08:02:42;;;;;;;12.30;5.55;;;19.90;71.70;;;;;;5155618;27;20101;-65
2021/09/17 08:05:08;;;;;;;10.40;5.95;;;19.90;71.50;;;;;;5155308;27;20031;-65
2021/09/17 08:07:33;;;;;;;10.95;5.15;;;20.00;71.30;;;;;;5155323;27;20023;-66
2021/09/17 08:09:59;;;;;;;9.52;4.97;;;20.00;71.20;;;;;;5155376;27;20541;-65
2021/09/17 08:12:25;;;;;;;13.95;5.65;;;20.00;71.00;;;;;;5155341;27;20350;-65
2021/09/17 08:14:51;;;;;;;8.70;5.57;;;20.10;70.80;;;;;;5155373;27;20019;-65
2021/09/17 08:17:16;;;;;;;12.93;5.70;;;20.10;70.60;;;;;;5155365;27;20075;-65
2021/09/17 08:19:42;;;;;;;15.13;6.70;;;20.20;70.60;;;;;;5155426;27;20026;-65
2021/09/17 08:22:08;;;;;;;18.05;7.30;;;20.20;70.30;;;;;;5155379;27;20472;-65
2021/09/17 08:24:34;;;;;;;19.83;8.38;;;20.30;70.20;;;;;;5155257;27;20050;-65
2021/09/17 08:27:00;;;;;;;21.10;8.55;;;20.30;70.10;;;;;;5155093;27;20266;-65
2021/09/17 08:29:27;;;;;;;18.75;8.80;;;20.30;70.00;;;;;;5154993;27;20046;-65
2021/09/17 08:31:54;;;;;;;16.88;8.88;;;20.40;70.00;;;;;;5155287;27;20023;-65
2021/09/17 08:34:20;;;;;;;16.50;7.13;;;20.50;69.80;;;;;;5155108;27;20026;-64
2021/09/17 08:36:46;;;;;;;16.95;7.90;;;20.50;69.60;;;;;;5155134;27;20038;-64
2021/09/17 08:39:12;;;;;;;14.50;7.70;;;20.50;69.50;;;;;;5155136;27;20061;-65
2021/09/17 08:41:38;;;;;;;12.45;6.95;;;20.60;69.40;;;;;;5154934;27;20488;-65
2021/09/17 08:44:04;;;;;;;16.65;7.43;;;20.60;69.40;;;;;;5155184;27;20376;-65
2021/09/17 08:46:30;;;;;;;12.75;6.80;;;20.60;69.30;;;;;;5154990;27;20034;-65
2021/09/17 08:48:57;;;;;;;14.02;6.25;;;20.70;69.20;;;;;;5154945;27;20026;-65
2021/09/17 08:51:23;;;;;;;16.27;6.28;;;20.70;69.20;;;;;;5154993;27;20018;-65
2021/09/17 08:53:49;;;;;;;17.58;6.60;;;20.70;69.10;;;;;;5136513;27;20380;-65
2021/09/17 08:56:17;;;;;;;12.63;6.93;;;20.80;69.10;;;;;;5154853;27;20027;-65
2021/09/17 08:58:46;;;;;;;16.20;6.70;;;20.80;69.10;;;;;;5154892;27;20050;-64
2021/09/17 09:01:33;;;;;;;14.10;6.30;;;20.80;69.10;;;;;;5155039;27;20052;-65
2021/09/17 09:04:02;;;;;;;13.88;5.90;;;20.90;69.20;;;;;;5154981;27;20457;-65
2021/09/17 09:06:40;;;;;;;13.50;5.27;;;20.90;69.10;;;;;;5154838;27;20050;-65
2021/09/17 09:09:21;;;;;;;12.10;6.30;;;21.00;69.30;;;;;;5155002;27;20477;-65
2021/09/17 09:11:48;;;;;;;12.90;6.60;;;21.00;69.30;;;;;;5154846;27;20361;-65
2021/09/17 09:14:16;;;;;;;15.98;7.38;;;21.00;69.20;;;;;;5155144;27;20019;-64
2021/09/17 09:16:47;;;;;;;15.48;6.15;;;21.10;69.30;;;;;;5157081;27;20018;-65
2021/09/17 09:19:29;;;;;;;11.93;6.85;;;21.20;69.30;;;;;;5158609;27;20033;-65
2021/09/17 09:22:04;;;;;;;16.17;7.43;;;21.20;69.20;;;;;;5158837;27;20034;-65
2021/09/17 09:24:32;;;;;;;18.73;8.35;;;21.20;69.10;;;;;;5158650;27;20026;-65
2021/09/17 09:27:11;;;;;;;21.00;7.93;;;21.30;69.10;;;;;;5158635;27;20026;-65
2021/09/17 09:29:39;;;;;;;18.53;7.43;;;21.30;69.00;;;;;;5158171;27;20057;-65
2021/09/17 09:32:05;;;;;;;14.02;6.80;;;21.40;69.00;;;;;;5158556;27;20506;-65
2021/09/17 09:35:09;;;;;;;9.82;6.28;;;21.40;68.90;;;;;;5158394;27;20372;-65
2021/09/17 09:37:37;;;;;;;12.20;5.78;;;21.40;69.00;;;;;;5074293;28;20052;-65
2021/09/17 09:40:09;;;;;;;11.25;5.95;;;21.50;69.00;;;;;;5143808;27;20031;-65
2021/09/17 09:42:43;;;;;;;12.55;5.63;;;21.50;69.10;;;;;;5158214;27;20079;-65
2021/09/17 09:45:18;;;;;;;12.23;5.22;;;21.50;69.10;;;;;;5158394;27;20054;-64
2021/09/17 09:47:50;;;;;;;14.85;6.15;;;21.60;69.40;;;;;;5158132;27;20094;-65
2021/09/17 09:50:21;;;;;;;10.43;5.78;;;21.60;69.40;;;;;;5157896;27;20046;-65
2021/09/17 09:52:47;;;;;;;11.18;7.00;;;21.60;69.50;;;;;;5157942;27;20095;-65
2021/09/17 09:55:13;;;;;;;10.70;6.68;;;21.70;69.60;;;;;;5158377;27;20043;-65
2021/09/17 09:57:41;;;;;;;8.45;6.47;;;21.70;69.70;;;;;;5158069;27;20023;-65
2021/09/17 10:00:09;;;;;;;15.00;6.63;;;21.80;69.80;;;;;;5157913;27;20027;-64
2021/09/17 10:02:36;;;;;;;13.50;5.90;;;21.80;69.80;;;;;;5157934;27;20062;-65
2021/09/17 10:05:04;;;;;;;11.95;6.93;;;21.80;69.70;;;;;;5157636;27;20029;-65
2021/09/17 10:07:29;;;;;;;15.65;7.75;;;21.90;69.70;;;;;;5157619;27;20124;-64
2021/09/17 10:09:57;;;;;;;14.95;8.48;;;21.90;69.60;;;;;;5157680;27;20110;-65
2021/09/17 10:12:24;;;;;;;10.82;6.80;;;21.90;69.60;;;;;;5157702;27;20491;-65
2021/09/17 10:14:50;;;;;;;12.52;7.43;;;21.90;69.60;;;;;;5157622;27;20018;-65
2021/09/17 10:17:22;;;;;;;10.65;6.38;;;21.90;69.50;;;;;;5157595;27;20018;-65
2021/09/17 10:19:49;;;;;;;12.68;6.10;;;22.00;69.60;;;;;;5157594;27;20023;-64
2021/09/17 10:22:38;;;;;;;15.63;5.97;;;22.00;69.60;;;;;;5157505;27;20022;-64
2021/09/17 10:25:05;;;;;;;10.63;6.07;;;22.00;69.50;;;;;;5157471;27;20019;-65
2021/09/17 10:27:31;;;;;;;13.27;5.93;;;22.00;69.50;;;;;;5157283;27;20029;-64
2021/09/17 10:30:00;;;;;;;13.93;6.18;;;22.00;69.50;;;;;;5157028;27;20047;-65
2021/09/17 10:32:38;;;;;;;12.47;6.20;;;22.10;69.40;;;;;;5157414;27;20495;-65
2021/09/17 10:35:23;;;;;;;13.18;6.43;;;22.10;69.30;;;;;;5157248;27;20654;-65
2021/09/17 10:38:24;;;;;;;10.90;5.57;;;22.10;69.30;;;;;;5157204;27;20479;-65
2021/09/17 10:41:06;;;;;;;11.80;5.70;;;22.10;69.30;;;;;;5142538;27;20035;-65
2021/09/17 10:43:59;;;;;;;10.20;5.43;;;22.20;69.30;;;;;;5157209;27;20026;-65
2021/09/17 10:46:31;;;;;;;10.57;5.80;;;22.20;69.30;;;;;;5156933;27;20030;-65
2021/09/17 10:48:58;;;;;;;11.27;5.72;;;22.20;69.30;;;;;;5157256;27;20022;-64
2021/09/17 10:51:30;;;;;;;11.93;5.75;;;22.20;69.20;;;;;;5157124;27;20038;-64
2021/09/17 10:53:57;;;;;;;9.60;5.75;;;22.20;69.00;;;;;;5156826;27;20026;-65
2021/09/17 10:56:23;;;;;;;13.23;5.88;;;22.30;69.00;;;;;;5156807;27;20015;-64
2021/09/17 10:59:08;;;;;;;15.40;5.90;;;22.30;68.90;;;;;;5156824;27;20046;-65
2021/09/17 11:01:48;;;;;;;13.07;5.63;;;22.30;68.80;;;;;;5156663;27;20031;-64
2021/09/17 11:04:26;;;;;;;14.98;6.13;;;22.30;68.70;;;;;;5138104;27;20418;-65
2021/09/17 11:06:54;;;;;;;9.02;5.32;;;22.40;68.80;;;;;;5157036;27;20357;-65
2021/09/17 11:09:39;;;;;;;13.00;5.45;;;22.40;68.80;;;;;;5156420;27;20075;-64
2021/09/17 11:12:22;;;;;;;12.15;5.40;;;22.40;68.80;;;;;;5155001;27;20095;-65
2021/09/17 11:15:07;;;;;;;11.20;5.22;;;22.40;68.70;;;;;;5136127;27;20049;-65
2021/09/17 11:18:02;;;;;;;10.55;5.57;;;22.50;68.70;;;;;;5154646;27;20018;-64
2021/09/17 11:20:30;;;;;;;17.88;5.97;;;22.50;68.60;;;;;;5154564;27;20019;-65
2021/09/17 11:23:06;;;;;;;10.88;5.78;;;22.50;68.50;;;;;;5154440;27;20044;-65
2021/09/17 11:25:33;;;;;;;13.75;6.38;;;22.50;68.40;;;;;;5153645;27;20023;-64
2021/09/17 11:28:01;;;;;;;14.70;7.35;;;22.60;68.40;;;;;;5156142;27;20112;-64
2021/09/17 11:30:30;;;;;;;14.73;6.95;;;22.60;68.20;;;;;;5155747;27;20043;-64
2021/09/17 11:32:56;;;;;;;14.90;6.30;;;22.60;68.20;;;;;;5156109;27;20037;-64
2021/09/17 11:35:21;;;;;;;11.75;5.70;;;22.60;68.00;;;;;;5156014;27;20029;-64
2021/09/17 11:37:57;;;;;;;18.60;5.32;;;22.60;67.90;;;;;;5156017;27;20022;-65
2021/09/17 11:40:26;;;;;;;14.38;5.20;;;22.60;67.80;;;;;;5155553;27;20018;-64
2021/09/17 11:42:52;;;;;;;16.27;5.35;;;22.70;67.90;;;;;;5155908;27;20023;-65
2021/09/17 11:45:19;;;;;;;10.70;5.43;;;22.70;68.00;;;;;;5155943;27;20422;-65
2021/09/17 11:47:51;;;;;;;8.82;5.40;;;22.70;67.90;;;;;;5156148;27;20046;-65
2021/09/17 11:50:18;;;;;;;10.65;5.43;;;22.80;67.80;;;;;;5155747;27;20023;-71
2021/09/17 11:52:47;;;;;;;15.65;5.70;;;22.80;67.80;;;;;;5156130;27;20376;-71
2021/09/17 11:55:18;;;;;;;14.23;5.13;;;22.80;67.70;;;;;;5155703;27;20019;-71
2021/09/17 11:57:47;;;;;;;14.05;5.90;;;22.80;68.10;;;;;;5156018;27;20011;-71
2021/09/17 12:00:22;;;;;;;17.20;6.07;;;22.80;68.40;;;;;;5155687;27;20034;-71
2021/09/17 12:03:01;;;;;;;14.60;6.00;;;22.70;68.40;;;;;;5155477;27;20413;-70
2021/09/17 12:05:28;;;;;;;10.80;6.30;;;22.70;68.60;;;;;;5155609;27;20072;-71
2021/09/17 12:07:54;;;;;;;10.55;5.50;;;22.60;68.60;;;;;;5155600;27;20040;-72
2021/09/17 12:10:29;;;;;;;10.10;5.70;;;22.50;68.60;;;;;;5155664;27;20019;-72
2021/09/17 12:13:00;;;;;;;7.97;5.65;;;22.50;68.80;;;;;;5153986;27;20056;-72
2021/09/17 12:15:32;;;;;;;7.95;5.68;;;22.50;69.00;;;;;;5153262;27;20010;-70
2021/09/17 12:18:00;;;;;;;7.95;5.22;;;22.40;69.00;;;;;;5154326;27;20030;-72
2021/09/17 12:20:38;;;;;;;7.82;5.50;;;22.40;69.10;;;;;;5154180;27;20023;-71
2021/09/17 12:23:04;;;;;;;10.02;5.80;;;22.40;69.20;;;;;;5154068;27;20057;-70
2021/09/17 12:25:31;;;;;;;11.73;5.63;;;22.30;69.30;;;;;;5154919;27;20532;-70
2021/09/17 12:28:20;;;;;;;8.90;5.60;;;22.30;69.30;;;;;;5155843;27;20357;-70
2021/09/17 12:30:47;;;;;;;7.72;5.75;;;22.30;69.30;;;;;;5155050;27;20556;-71
2021/09/17 12:33:22;;;;;;;11.65;5.95;;;22.20;69.40;;;;;;5155172;27;20042;-71
2021/09/17 12:35:50;;;;;;;9.50;5.88;;;22.20;69.50;;;;;;5155243;27;20019;-71
2021/09/17 12:38:17;;;;;;;6.97;5.70;;;22.20;69.50;;;;;;5155243;27;20091;-71
2021/09/17 12:40:48;;;;;;;11.93;5.72;;;22.10;69.50;;;;;;5155602;27;20026;-72
2021/09/17 12:43:22;;;;;;;8.57;6.00;;;22.10;69.60;;;;;;5155586;27;20050;-71
2021/09/17 12:46:00;;;;;;;10.60;6.38;;;22.10;69.70;;;;;;5155458;27;20164;-71
2021/09/17 12:48:29;;;;;;;8.52;5.80;;;22.10;69.80;;;;;;5155376;27;20054;-70
2021/09/17 12:50:54;;;;;;;7.97;5.68;;;22.10;69.90;;;;;;5156331;27;20031;-71
2021/09/17 12:53:22;;;;;;;8.68;6.00;;;22.10;70.00;;;;;;5159893;27;20417;-70
2021/09/17 12:55:59;;;;;;;8.30;6.00;;;22.00;70.00;;;;;;5159671;27;20018;-71
2021/09/17 12:58:30;;;;;;;9.52;5.65;;;22.00;70.20;;;;;;5159374;27;20019;-71
2021/09/17 13:00:56;;;;;;;8.05;5.68;;;22.00;70.30;;;;;;5159329;27;20022;-72
2021/09/17 13:03:21;;;;;;;8.27;5.82;;;22.00;70.30;;;;;;5159242;27;20614;-69
